createdAt,value
2023-05-22T00:00:08.913Z,20.57
2023-05-22T00:02:43.210Z,20.53
2023-05-22T00:05:15.028Z,20.52
2023-05-22T00:07:43.283Z,20.50
2023-05-22T00:10:11.331Z,20.48
2023-05-22T00:12:38.959Z,20.45
2023-05-22T00:15:07.890Z,20.39
2023-05-22T00:17:35.476Z,20.39
2023-05-22T00:20:06.849Z,20.38
2023-05-22T00:22:35.395Z,20.37
2023-05-22T00:25:07.169Z,20.33
2023-05-22T00:27:34.886Z,20.33
2023-05-22T00:30:02.660Z,20.31
2023-05-22T00:32:30.192Z,20.25
2023-05-22T00:34:57.943Z,20.20
2023-05-22T00:37:25.571Z,20.19
2023-05-22T00:39:53.209Z,20.22
2023-05-22T00:42:21.130Z,20.24
2023-05-22T00:44:48.926Z,20.25
2023-05-22T00:47:16.609Z,20.25
2023-05-22T00:49:45.285Z,20.22
2023-05-22T00:52:14.483Z,20.17
2023-05-22T00:54:43.202Z,20.13
2023-05-22T00:57:11.124Z,20.13
2023-05-22T00:59:38.737Z,20.11
2023-05-22T01:02:06.674Z,20.09
2023-05-22T01:04:35.238Z,20.08
2023-05-22T01:07:03.147Z,20.08
2023-05-22T01:09:31.095Z,20.06
2023-05-22T01:12:24.206Z,20.02
2023-05-22T01:15:13.564Z,20.01
2023-05-22T01:18:37.473Z,19.95
2023-05-22T01:21:38.954Z,19.95
2023-05-22T01:25:07.816Z,19.94
2023-05-22T01:28:21.829Z,19.93
2023-05-22T01:31:11.452Z,19.96
2023-05-22T01:34:00.931Z,19.95
2023-05-22T01:36:34.984Z,19.96
2023-05-22T01:39:06.159Z,19.98
2023-05-22T01:41:37.377Z,19.99
2023-05-22T01:44:04.992Z,20.00
2023-05-22T01:46:32.953Z,20.00
2023-05-22T01:49:00.728Z,20.01
2023-05-22T01:51:57.424Z,20.04
2023-05-22T01:54:50.252Z,20.06
2023-05-22T01:57:50.160Z,20.01
2023-05-22T02:00:21.334Z,19.96
2023-05-22T02:03:06.441Z,19.93
2023-05-22T02:05:38.613Z,19.87
2023-05-22T02:08:07.921Z,19.86
2023-05-22T02:10:37.111Z,19.88
2023-05-22T02:13:05.428Z,19.85
2023-05-22T02:15:33.672Z,19.79
2023-05-22T02:18:02.083Z,19.74
2023-05-22T02:20:30.223Z,19.73
2023-05-22T02:22:58.601Z,19.71
2023-05-22T02:25:26.198Z,19.71
2023-05-22T02:27:55.385Z,19.67
2023-05-22T02:30:23.095Z,19.63
2023-05-22T02:32:52.540Z,19.61
2023-05-22T02:35:20.471Z,19.54
2023-05-22T02:37:48.007Z,19.51
2023-05-22T02:40:15.980Z,19.47
2023-05-22T02:42:43.543Z,19.43
2023-05-22T02:45:11.835Z,19.38
2023-05-22T02:47:39.519Z,19.37
2023-05-22T02:50:07.932Z,19.32
2023-05-22T02:52:36.983Z,19.28
2023-05-22T02:55:05.350Z,19.25
2023-05-22T02:57:32.948Z,19.22
2023-05-22T03:00:01.458Z,19.22
2023-05-22T03:02:32.237Z,19.20
2023-05-22T03:04:59.935Z,19.18
2023-05-22T03:07:29.636Z,19.16
2023-05-22T03:09:57.878Z,19.15
2023-05-22T03:12:25.454Z,19.11
2023-05-22T03:14:53.031Z,19.08
2023-05-22T03:17:20.613Z,19.03
2023-05-22T03:19:48.549Z,19.00
2023-05-22T03:22:18.329Z,18.96
2023-05-22T03:24:46.040Z,18.94
2023-05-22T03:27:17.180Z,18.92
2023-05-22T03:29:46.941Z,18.94
2023-05-22T03:32:14.685Z,18.94
2023-05-22T03:34:43.416Z,18.92
2023-05-22T03:37:12.191Z,18.89
2023-05-22T03:39:39.844Z,18.93
2023-05-22T03:42:21.708Z,18.93
2023-05-22T03:44:49.982Z,18.92
2023-05-22T03:47:19.101Z,18.93
2023-05-22T03:49:46.977Z,18.95
2023-05-22T03:52:14.565Z,18.95
2023-05-22T03:54:42.124Z,18.94
2023-05-22T03:57:09.838Z,18.93
2023-05-22T03:59:37.408Z,18.94
2023-05-22T04:02:05.413Z,18.95
2023-05-22T04:04:38.499Z,18.99
2023-05-22T04:07:08.246Z,19.06
2023-05-22T04:09:36.469Z,19.07
2023-05-22T04:12:04.377Z,19.10
2023-05-22T04:14:32.725Z,19.13
2023-05-22T04:17:00.290Z,19.14
2023-05-22T04:19:29.935Z,19.15
2023-05-22T04:21:58.868Z,19.16
2023-05-22T04:24:27.548Z,19.18
2023-05-22T04:26:56.098Z,19.20
2023-05-22T04:29:24.275Z,19.24
2023-05-22T04:31:54.290Z,19.22
2023-05-22T04:34:22.264Z,19.20
2023-05-22T04:36:49.871Z,19.19
2023-05-22T04:39:18.584Z,19.21
2023-05-22T04:41:46.211Z,19.20
2023-05-22T04:44:14.299Z,19.19
2023-05-22T04:46:42.299Z,19.15
2023-05-22T04:49:10.379Z,19.17
2023-05-22T04:51:38.015Z,19.21
2023-05-22T04:54:06.461Z,19.26
2023-05-22T04:56:37.013Z,19.29
2023-05-22T04:59:08.729Z,19.31
2023-05-22T05:01:37.800Z,19.33
2023-05-22T05:04:05.881Z,19.39
2023-05-22T05:06:34.710Z,19.44
2023-05-22T05:09:07.011Z,19.52
2023-05-22T05:11:36.069Z,19.57
2023-05-22T05:14:04.395Z,19.64
2023-05-22T05:16:31.969Z,19.70
2023-05-22T05:18:59.577Z,19.77
2023-05-22T05:21:27.969Z,19.79
2023-05-22T05:23:57.645Z,19.83
2023-05-22T05:26:26.964Z,19.89
2023-05-22T05:28:56.431Z,19.94
2023-05-22T05:31:24.257Z,19.95
2023-05-22T05:34:07.620Z,20.03
2023-05-22T05:36:49.882Z,20.09
2023-05-22T05:39:18.476Z,20.13
2023-05-22T05:41:46.068Z,20.22
2023-05-22T05:44:13.736Z,20.33
2023-05-22T05:46:41.804Z,20.43
2023-05-22T05:49:11.180Z,20.54
2023-05-22T05:51:40.582Z,20.67
2023-05-22T05:54:08.855Z,20.78
2023-05-22T05:56:37.654Z,20.88
2023-05-22T05:59:05.740Z,20.96
2023-05-22T06:01:41.315Z,21.09
2023-05-22T06:04:15.300Z,21.20
2023-05-22T06:06:45.653Z,21.29
2023-05-22T06:09:16.341Z,21.34
2023-05-22T06:12:02.528Z,21.40
2023-05-22T06:14:30.631Z,21.43
2023-05-22T06:16:58.370Z,21.51
2023-05-22T06:19:26.030Z,21.61
2023-05-22T06:21:53.700Z,21.68
2023-05-22T06:24:22.182Z,21.74
2023-05-22T06:26:50.747Z,21.75
2023-05-22T06:29:18.823Z,21.74
2023-05-22T06:31:47.980Z,21.73
2023-05-22T06:34:19.210Z,21.77
2023-05-22T06:36:46.857Z,21.79
2023-05-22T06:39:16.208Z,21.79
2023-05-22T06:42:08.951Z,21.80
2023-05-22T06:44:54.806Z,21.86
2023-05-22T06:47:27.730Z,21.89
2023-05-22T06:49:55.345Z,21.92
2023-05-22T06:52:23.273Z,21.91
2023-05-22T06:54:50.865Z,21.93
2023-05-22T06:57:18.491Z,21.95
2023-05-22T06:59:46.780Z,21.93
2023-05-22T07:02:29.538Z,21.95
2023-05-22T07:05:23.129Z,21.97
2023-05-22T07:07:56.975Z,21.95
2023-05-22T07:10:27.534Z,21.97
2023-05-22T07:12:55.502Z,21.99
2023-05-22T07:15:23.125Z,22.00
2023-05-22T07:17:54.002Z,22.03
2023-05-22T07:20:22.666Z,22.06
2023-05-22T07:23:23.815Z,22.11
2023-05-22T07:25:52.647Z,22.12
2023-05-22T07:28:23.296Z,22.15
2023-05-22T07:31:05.649Z,22.17
2023-05-22T07:33:33.377Z,22.10
2023-05-22T07:36:01.051Z,22.10
2023-05-22T07:38:28.662Z,22.03
2023-05-22T07:41:00.503Z,22.04
2023-05-22T07:43:29.877Z,21.98
2023-05-22T07:45:59.237Z,22.01
2023-05-22T07:48:31.447Z,22.09
2023-05-22T07:51:00.072Z,22.17
2023-05-22T07:53:28.138Z,22.23
2023-05-22T07:55:58.786Z,22.06
2023-05-22T07:58:27.136Z,21.90
2023-05-22T08:00:55.896Z,22.01
2023-05-22T08:03:24.410Z,21.98
2023-05-22T08:05:52.144Z,22.00
2023-05-22T08:08:19.693Z,21.93
2023-05-22T08:11:02.901Z,22.02
2023-05-22T08:13:32.200Z,22.09
2023-05-22T08:16:01.133Z,22.23
2023-05-22T08:18:30.123Z,22.22
2023-05-22T08:20:58.109Z,22.32
2023-05-22T08:23:25.654Z,22.41
2023-05-22T08:25:53.245Z,22.43
2023-05-22T08:28:20.977Z,22.50
2023-05-22T08:30:48.604Z,22.53
2023-05-22T08:33:16.522Z,22.64
2023-05-22T08:35:44.155Z,22.65
2023-05-22T08:38:11.913Z,22.57
2023-05-22T08:40:40.778Z,22.72
2023-05-22T08:43:09.740Z,22.92
2023-05-22T08:45:37.558Z,22.87
2023-05-22T08:48:06.332Z,23.12
2023-05-22T08:50:40.769Z,23.17
2023-05-22T08:53:11.240Z,23.25
2023-05-22T08:55:39.400Z,23.21
2023-05-22T08:58:08.193Z,23.34
2023-05-22T09:00:35.883Z,23.50
2023-05-22T09:03:06.589Z,23.53
2023-05-22T09:05:34.359Z,23.62
2023-05-22T09:08:15.927Z,23.66
2023-05-22T09:10:47.859Z,23.80
2023-05-22T09:13:29.022Z,23.90
2023-05-22T09:16:08.377Z,23.88
2023-05-22T09:18:38.017Z,23.94
2023-05-22T09:21:17.730Z,24.00
2023-05-22T09:23:54.744Z,24.13
2023-05-22T09:26:26.552Z,24.10
2023-05-22T09:28:54.117Z,24.08
2023-05-22T09:31:21.806Z,24.09
2023-05-22T09:33:49.392Z,24.09
2023-05-22T09:36:17.225Z,24.17
2023-05-22T09:38:44.990Z,24.29
2023-05-22T09:41:12.656Z,24.23
2023-05-22T09:43:51.159Z,24.32
2023-05-22T09:46:18.765Z,24.42
2023-05-22T09:48:52.496Z,24.46
2023-05-22T09:51:26.449Z,24.37
2023-05-22T09:54:03.360Z,24.41
2023-05-22T09:56:39.736Z,24.58
2023-05-22T09:59:09.827Z,24.64
2023-05-22T10:01:39.874Z,24.71
2023-05-22T10:04:14.278Z,24.73
2023-05-22T10:06:47.255Z,24.83
2023-05-22T10:09:19.463Z,24.93
2023-05-22T10:11:49.949Z,24.92
2023-05-22T10:14:17.838Z,24.92
2023-05-22T10:16:45.708Z,24.95
2023-05-22T10:19:14.176Z,25.05
2023-05-22T10:21:42.019Z,25.13
2023-05-22T10:24:10.975Z,25.04
2023-05-22T10:26:39.077Z,25.21
2023-05-22T10:29:19.205Z,25.39
2023-05-22T10:32:15.645Z,25.62
2023-05-22T10:35:33.119Z,25.77
2023-05-22T10:38:17.966Z,25.82
2023-05-22T10:40:46.938Z,25.89
2023-05-22T10:43:14.820Z,25.95
2023-05-22T10:45:46.648Z,25.95
2023-05-22T10:48:14.551Z,25.99
2023-05-22T10:50:52.909Z,26.10
2023-05-22T10:53:25.260Z,25.96
2023-05-22T10:55:57.614Z,25.85
2023-05-22T10:58:37.206Z,25.78
2023-05-22T11:01:19.415Z,25.87
2023-05-22T11:04:12.471Z,25.76
2023-05-22T11:06:46.033Z,25.98
2023-05-22T11:09:17.688Z,25.98
2023-05-22T11:11:46.849Z,26.03
2023-05-22T11:14:20.204Z,26.11
2023-05-22T11:16:47.901Z,25.97
2023-05-22T11:19:23.392Z,26.01
2023-05-22T11:21:51.775Z,26.11
2023-05-22T11:24:19.462Z,26.20
2023-05-22T11:27:07.670Z,26.18
2023-05-22T11:29:36.647Z,26.21
2023-05-22T11:32:04.501Z,26.25
2023-05-22T11:34:32.269Z,26.23
2023-05-22T11:37:00.412Z,26.12
2023-05-22T11:39:28.252Z,26.24
2023-05-22T11:41:56.053Z,26.26
2023-05-22T11:44:23.701Z,26.42
2023-05-22T11:46:51.652Z,26.58
2023-05-22T11:49:23.773Z,26.64
2023-05-22T11:51:52.226Z,26.71
2023-05-22T11:54:20.154Z,26.78
2023-05-22T11:56:48.150Z,26.89
2023-05-22T11:59:16.307Z,26.99
2023-05-22T12:01:43.933Z,26.95
2023-05-22T12:04:11.597Z,27.07
2023-05-22T12:06:39.304Z,27.22
2023-05-22T12:09:07.254Z,27.35
2023-05-22T12:11:36.476Z,27.46
2023-05-22T12:14:04.763Z,27.52
2023-05-22T12:16:36.671Z,27.50
2023-05-22T12:19:12.369Z,27.59
2023-05-22T12:21:42.025Z,27.71
2023-05-22T12:24:10.615Z,27.78
2023-05-22T12:26:38.220Z,27.65
2023-05-22T12:29:05.908Z,27.79
2023-05-22T12:31:38.319Z,27.90
2023-05-22T12:34:08.207Z,27.92
2023-05-22T12:36:39.938Z,28.08
2023-05-22T12:39:09.400Z,27.93
2023-05-22T12:41:40.046Z,28.13
2023-05-22T12:44:07.671Z,28.23
2023-05-22T12:46:35.670Z,28.16
2023-05-22T12:49:03.398Z,28.34
2023-05-22T12:51:32.395Z,28.56
2023-05-22T12:54:01.605Z,28.71
2023-05-22T12:56:31.112Z,28.81
2023-05-22T12:58:59.445Z,29.00
2023-05-22T13:01:27.228Z,29.15
2023-05-22T13:03:54.761Z,29.23
2023-05-22T13:06:22.362Z,29.43
2023-05-22T13:08:51.010Z,29.42
2023-05-22T13:11:20.053Z,29.37
2023-05-22T13:13:47.585Z,29.36
2023-05-22T13:16:15.164Z,29.35
2023-05-22T13:18:42.766Z,29.51
2023-05-22T13:21:10.435Z,29.70
2023-05-22T13:23:37.995Z,29.70
2023-05-22T13:26:05.851Z,29.61
2023-05-22T13:28:33.438Z,29.88
2023-05-22T13:31:01.000Z,30.07
2023-05-22T13:33:28.529Z,30.12
2023-05-22T13:35:56.108Z,30.25
2023-05-22T13:38:23.650Z,30.46
2023-05-22T13:40:51.983Z,30.62
2023-05-22T13:43:19.625Z,30.96
2023-05-22T13:45:47.169Z,30.88
2023-05-22T13:48:14.723Z,31.04
2023-05-22T13:50:42.312Z,31.06
2023-05-22T13:53:09.891Z,31.30
2023-05-22T13:55:38.860Z,31.23
2023-05-22T13:58:06.631Z,30.80
2023-05-22T14:00:34.200Z,30.60
2023-05-22T14:03:01.883Z,30.26
2023-05-22T14:05:29.553Z,29.95
2023-05-22T14:07:57.080Z,29.88
2023-05-22T14:10:24.634Z,29.89
2023-05-22T14:12:52.274Z,30.06
2023-05-22T14:15:19.820Z,30.45
2023-05-22T14:17:47.397Z,30.87
2023-05-22T14:20:15.088Z,31.18
2023-05-22T14:22:55.859Z,31.25
2023-05-22T14:25:24.414Z,31.32
2023-05-22T14:27:51.989Z,31.09
2023-05-22T14:30:19.748Z,30.83
2023-05-22T14:32:47.494Z,30.95
2023-05-22T14:35:16.578Z,30.59
2023-05-22T14:37:44.300Z,30.34
2023-05-22T14:40:11.934Z,30.27
2023-05-22T14:42:39.484Z,30.20
2023-05-22T14:45:07.775Z,30.10
2023-05-22T14:47:35.445Z,30.13
2023-05-22T14:50:18.165Z,30.42
2023-05-22T14:52:47.322Z,30.60
2023-05-22T14:55:15.387Z,31.07
2023-05-22T14:57:42.954Z,31.24
2023-05-22T15:00:12.043Z,31.15
2023-05-22T15:02:40.791Z,31.11
2023-05-22T15:05:09.573Z,31.00
2023-05-22T15:10:09.435Z,30.66
2023-05-22T15:12:37.366Z,30.58
2023-05-22T15:15:05.526Z,30.29
2023-05-22T15:17:33.166Z,30.62
2023-05-22T15:20:00.845Z,30.81
2023-05-22T15:22:28.484Z,30.71
2023-05-22T15:25:15.296Z,30.98
2023-05-22T15:27:43.363Z,31.38
2023-05-22T15:30:12.003Z,31.62
2023-05-22T15:32:39.662Z,31.72
2023-05-22T15:35:07.825Z,31.83
2023-05-22T15:37:36.444Z,31.93
2023-05-22T15:40:05.912Z,31.85
2023-05-22T15:42:33.717Z,32.01
2023-05-22T15:45:01.349Z,32.00
2023-05-22T15:47:29.565Z,32.24
2023-05-22T15:49:57.170Z,32.20
2023-05-22T15:52:24.989Z,32.20
2023-05-22T15:54:53.192Z,32.26
2023-05-22T15:57:21.577Z,32.13
2023-05-22T15:59:50.655Z,32.09
2023-05-22T16:02:19.047Z,31.89
2023-05-22T16:04:47.383Z,31.71
2023-05-22T16:07:15.288Z,31.55
2023-05-22T16:09:43.374Z,31.44
2023-05-22T16:12:11.178Z,31.34
2023-05-22T16:14:40.053Z,31.18
2023-05-22T16:17:08.117Z,30.97
2023-05-22T16:19:35.926Z,30.81
2023-05-22T16:22:03.828Z,30.65
2023-05-22T16:24:31.376Z,30.47
2023-05-22T16:27:00.090Z,30.28
2023-05-22T16:29:27.765Z,30.16
2023-05-22T16:31:57.024Z,30.02
2023-05-22T16:34:24.780Z,29.94
2023-05-22T16:36:52.338Z,29.82
2023-05-22T16:39:19.893Z,29.70
2023-05-22T16:41:47.614Z,29.56
2023-05-22T16:44:15.457Z,29.38
2023-05-22T16:46:43.530Z,29.24
2023-05-22T16:49:11.216Z,29.15
2023-05-22T16:51:38.763Z,29.05
2023-05-22T16:54:06.376Z,28.98
2023-05-22T16:56:34.164Z,28.86
2023-05-22T16:59:02.038Z,28.78
2023-05-22T17:01:29.758Z,28.71
2023-05-22T17:03:57.724Z,28.58
2023-05-22T17:06:27.490Z,28.50
2023-05-22T17:08:55.042Z,28.41
2023-05-22T17:11:24.008Z,28.34
2023-05-22T17:13:51.957Z,28.30
2023-05-22T17:16:19.656Z,28.21
2023-05-22T17:18:47.317Z,28.13
2023-05-22T17:21:17.414Z,27.92
2023-05-22T17:23:45.016Z,27.44
2023-05-22T17:26:14.152Z,26.84
2023-05-22T17:28:41.760Z,26.44
2023-05-22T17:31:09.447Z,26.46
2023-05-22T17:33:37.005Z,26.35
2023-05-22T17:36:04.829Z,25.88
2023-05-22T17:38:32.453Z,25.56
2023-05-22T17:41:00.838Z,25.67
2023-05-22T17:43:29.187Z,25.53
2023-05-22T17:45:56.863Z,25.57
2023-05-22T17:48:26.975Z,25.40
2023-05-22T17:50:54.838Z,25.31
2023-05-22T17:53:22.510Z,25.13
2023-05-22T17:55:52.314Z,24.96
2023-05-22T17:58:21.013Z,24.85
2023-05-22T18:00:49.041Z,24.33
2023-05-22T18:03:21.459Z,24.26
2023-05-22T18:05:50.392Z,24.29
2023-05-22T18:08:18.996Z,24.42
2023-05-22T18:10:46.700Z,24.51
2023-05-22T18:13:14.439Z,24.40
2023-05-22T18:15:42.235Z,24.30
2023-05-22T18:18:12.788Z,24.23
2023-05-22T18:20:40.769Z,24.25
2023-05-22T18:23:08.596Z,24.25
2023-05-22T18:25:36.133Z,24.33
2023-05-22T18:28:03.748Z,24.34
2023-05-22T18:30:32.214Z,24.21
2023-05-22T18:32:59.762Z,24.22
2023-05-22T18:35:27.462Z,23.97
2023-05-22T18:37:55.104Z,23.93
2023-05-22T18:40:22.745Z,23.86
2023-05-22T18:42:50.266Z,23.91
2023-05-22T18:45:17.834Z,23.85
2023-05-22T18:47:45.405Z,23.93
2023-05-22T18:50:13.098Z,23.89
2023-05-22T18:52:40.649Z,23.85
2023-05-22T18:55:08.744Z,23.87
2023-05-22T18:57:36.318Z,23.94
2023-05-22T19:00:04.542Z,23.85
2023-05-22T19:02:32.209Z,23.85
2023-05-22T19:04:59.940Z,23.84
2023-05-22T19:07:27.614Z,23.82
2023-05-22T19:09:55.455Z,23.78
2023-05-22T19:12:24.642Z,23.70
2023-05-22T19:14:52.494Z,23.72
2023-05-22T19:17:20.029Z,23.62
2023-05-22T19:19:47.595Z,23.62
2023-05-22T19:22:17.827Z,23.50
2023-05-22T19:24:45.739Z,23.50
2023-05-22T19:27:13.332Z,23.56
2023-05-22T19:29:41.082Z,23.60
2023-05-22T19:32:08.623Z,23.69
2023-05-22T19:34:36.341Z,23.75
2023-05-22T19:37:04.073Z,23.78
2023-05-22T19:39:31.662Z,23.82
2023-05-22T19:41:59.242Z,23.83
2023-05-22T19:44:26.831Z,23.84
2023-05-22T19:46:54.517Z,23.81
2023-05-22T19:49:22.088Z,23.77
2023-05-22T19:51:49.608Z,23.76
2023-05-22T19:54:17.240Z,23.80
2023-05-22T19:56:45.916Z,23.80
2023-05-22T19:59:13.471Z,23.81
2023-05-22T20:01:41.099Z,23.80
2023-05-22T20:04:08.906Z,23.79
2023-05-22T20:06:36.576Z,23.79
2023-05-22T20:09:05.759Z,23.75
2023-05-22T20:11:33.356Z,23.74
2023-05-22T20:14:02.464Z,23.75
2023-05-22T20:16:31.642Z,23.73
2023-05-22T20:18:59.617Z,23.71
2023-05-22T20:21:27.248Z,23.68
2023-05-22T20:23:55.576Z,23.66
2023-05-22T20:26:23.256Z,23.63
2023-05-22T20:28:50.871Z,23.58
2023-05-22T20:31:18.483Z,23.54
2023-05-22T20:33:46.069Z,23.51
2023-05-22T20:36:17.860Z,23.44
2023-05-22T20:38:46.050Z,23.35
2023-05-22T20:41:13.634Z,23.33
2023-05-22T20:43:43.188Z,23.28
2023-05-22T20:46:11.139Z,23.25
2023-05-22T20:48:38.906Z,23.11
2023-05-22T20:51:06.559Z,23.03
2023-05-22T20:53:34.159Z,22.97
2023-05-22T20:56:01.814Z,22.90
2023-05-22T20:58:29.488Z,22.86
2023-05-22T21:00:57.585Z,22.82
2023-05-22T21:03:26.057Z,22.76
2023-05-22T21:05:53.779Z,22.68
2023-05-22T21:08:21.443Z,22.71
2023-05-22T21:10:49.003Z,22.70
2023-05-22T21:13:16.796Z,22.70
2023-05-22T21:15:44.472Z,22.71
2023-05-22T21:18:12.176Z,22.57
2023-05-22T21:20:40.083Z,22.54
2023-05-22T21:23:07.797Z,22.46
2023-05-22T21:25:36.391Z,22.46
2023-05-22T21:28:04.135Z,22.48
2023-05-22T21:30:31.709Z,22.44
2023-05-22T21:32:59.410Z,22.44
2023-05-22T21:35:27.030Z,22.40
2023-05-22T21:37:54.646Z,22.31
2023-05-22T21:40:22.379Z,22.14
2023-05-22T21:42:49.913Z,22.12
2023-05-22T21:45:17.535Z,22.07
2023-05-22T21:47:45.198Z,21.95
2023-05-22T21:50:12.880Z,21.92
2023-05-22T21:52:40.416Z,21.79
2023-05-22T21:55:08.600Z,21.79
2023-05-22T21:57:36.686Z,21.69
2023-05-22T22:00:05.528Z,21.56
2023-05-22T22:02:33.103Z,21.46
2023-05-22T22:05:00.726Z,21.48
2023-05-22T22:07:28.278Z,21.46
2023-05-22T22:09:55.870Z,21.33
2023-05-22T22:12:23.491Z,21.25
2023-05-22T22:14:51.337Z,21.13
2023-05-22T22:17:23.680Z,21.10
2023-05-22T22:19:53.458Z,20.97
2023-05-22T22:22:22.662Z,20.79
2023-05-22T22:24:50.713Z,20.90
2023-05-22T22:27:19.617Z,20.87
2023-05-22T22:29:47.348Z,20.88
2023-05-22T22:32:15.032Z,20.89
2023-05-22T22:34:45.172Z,20.87
2023-05-22T22:37:13.931Z,20.82
2023-05-22T22:39:41.527Z,20.85
2023-05-22T22:42:09.084Z,20.81
2023-05-22T22:44:36.604Z,20.72
2023-05-22T22:47:04.605Z,20.51
2023-05-22T22:49:32.858Z,20.63
2023-05-22T22:52:00.739Z,20.70
2023-05-22T22:54:28.504Z,20.77
2023-05-22T22:56:56.259Z,20.72
2023-05-22T22:59:23.828Z,20.66
2023-05-22T23:01:51.552Z,20.63
2023-05-22T23:04:19.269Z,20.61
2023-05-22T23:06:46.898Z,20.49
2023-05-22T23:09:14.801Z,20.55
2023-05-22T23:11:42.367Z,20.62
2023-05-22T23:14:10.298Z,20.60
2023-05-22T23:16:42.057Z,20.58
2023-05-22T23:19:10.937Z,20.41
2023-05-22T23:21:38.584Z,20.22
2023-05-22T23:24:06.862Z,20.14
2023-05-22T23:26:34.592Z,20.12
2023-05-22T23:29:02.536Z,20.16
2023-05-22T23:31:31.179Z,20.26
2023-05-22T23:33:59.110Z,20.06
2023-05-22T23:36:26.643Z,19.99
2023-05-22T23:38:54.344Z,20.16
2023-05-22T23:41:21.999Z,19.97
2023-05-22T23:43:50.268Z,20.04
2023-05-22T23:46:20.983Z,20.12
2023-05-22T23:48:48.606Z,20.18
2023-05-22T23:51:16.791Z,20.22
2023-05-22T23:53:44.637Z,20.25
2023-05-22T23:56:12.202Z,20.23
2023-05-22T23:58:40.040Z,20.25
